sensor_id;sensor_type;location;lat;lon;timestamp;temperature;humidity
47845;DHT22;33605;48.822;8.796;2022-09-01T00:00:58;18.60;66.70
47845;DHT22;33605;48.822;8.796;2022-09-01T00:03:24;18.60;66.70
47845;DHT22;33605;48.822;8.796;2022-09-01T00:05:51;18.60;66.70
47845;DHT22;33605;48.822;8.796;2022-09-01T00:08:20;18.50;66.70
47845;DHT22;33605;48.822;8.796;2022-09-01T00:10:46;18.50;66.60
47845;DHT22;33605;48.822;8.796;2022-09-01T00:13:12;18.50;66.60
47845;DHT22;33605;48.822;8.796;2022-09-01T00:15:38;18.50;66.60
47845;DHT22;33605;48.822;8.796;2022-09-01T00:18:04;18.50;66.60
47845;DHT22;33605;48.822;8.796;2022-09-01T00:20:29;18.50;66.60
47845;DHT22;33605;48.822;8.796;2022-09-01T00:22:55;18.40;66.50
47845;DHT22;33605;48.822;8.796;2022-09-01T00:25:22;18.40;66.50
47845;DHT22;33605;48.822;8.796;2022-09-01T00:27:49;18.40;66.50
47845;DHT22;33605;48.822;8.796;2022-09-01T00:30:16;18.40;66.40
47845;DHT22;33605;48.822;8.796;2022-09-01T00:32:42;18.40;66.40
47845;DHT22;33605;48.822;8.796;2022-09-01T00:35:13;18.40;66.50
47845;DHT22;33605;48.822;8.796;2022-09-01T00:37:39;18.30;66.40
47845;DHT22;33605;48.822;8.796;2022-09-01T00:40:05;18.30;66.40
47845;DHT22;33605;48.822;8.796;2022-09-01T00:42:31;18.30;66.40
47845;DHT22;33605;48.822;8.796;2022-09-01T00:44:57;18.20;66.30
47845;DHT22;33605;48.822;8.796;2022-09-01T00:47:22;18.20;66.30
47845;DHT22;33605;48.822;8.796;2022-09-01T00:49:50;18.20;66.30
47845;DHT22;33605;48.822;8.796;2022-09-01T00:52:30;18.20;66.30
47845;DHT22;33605;48.822;8.796;2022-09-01T00:55:00;18.20;66.30
47845;DHT22;33605;48.822;8.796;2022-09-01T00:57:27;18.10;66.20
47845;DHT22;33605;48.822;8.796;2022-09-01T01:00:11;18.10;66.20
47845;DHT22;33605;48.822;8.796;2022-09-01T01:02:39;18.00;66.20
47845;DHT22;33605;48.822;8.796;2022-09-01T01:05:06;18.00;66.20
47845;DHT22;33605;48.822;8.796;2022-09-01T01:07:32;18.00;66.30
47845;DHT22;33605;48.822;8.796;2022-09-01T01:10:13;18.00;66.40
47845;DHT22;33605;48.822;8.796;2022-09-01T01:12:40;17.90;66.40
47845;DHT22;33605;48.822;8.796;2022-09-01T01:15:09;17.90;66.50
47845;DHT22;33605;48.822;8.796;2022-09-01T01:17:35;17.90;66.60
47845;DHT22;33605;48.822;8.796;2022-09-01T01:20:01;17.80;66.50
47845;DHT22;33605;48.822;8.796;2022-09-01T01:25:53;17.70;66.50
47845;DHT22;33605;48.822;8.796;2022-09-01T01:28:21;17.70;66.50
47845;DHT22;33605;48.822;8.796;2022-09-01T01:30:54;17.70;66.40
47845;DHT22;33605;48.822;8.796;2022-09-01T01:33:23;17.60;66.40
47845;DHT22;33605;48.822;8.796;2022-09-01T01:35:50;17.60;66.30
47845;DHT22;33605;48.822;8.796;2022-09-01T01:38:18;17.60;66.80
47845;DHT22;33605;48.822;8.796;2022-09-01T01:40:47;17.60;66.80
47845;DHT22;33605;48.822;8.796;2022-09-01T01:43:14;17.60;66.20
47845;DHT22;33605;48.822;8.796;2022-09-01T01:45:45;17.60;66.20
47845;DHT22;33605;48.822;8.796;2022-09-01T01:48:12;17.50;66.10
47845;DHT22;33605;48.822;8.796;2022-09-01T01:50:37;17.50;66.00
47845;DHT22;33605;48.822;8.796;2022-09-01T01:53:06;17.50;66.00
47845;DHT22;33605;48.822;8.796;2022-09-01T01:55:32;17.50;66.10
47845;DHT22;33605;48.822;8.796;2022-09-01T01:57:59;17.40;66.00
47845;DHT22;33605;48.822;8.796;2022-09-01T02:00:29;17.40;66.00
47845;DHT22;33605;48.822;8.796;2022-09-01T02:02:57;17.40;66.00
47845;DHT22;33605;48.822;8.796;2022-09-01T02:05:26;17.40;66.00
47845;DHT22;33605;48.822;8.796;2022-09-01T02:07:54;17.30;66.00
47845;DHT22;33605;48.822;8.796;2022-09-01T02:10:25;17.30;66.10
47845;DHT22;33605;48.822;8.796;2022-09-01T02:12:51;17.30;66.30
47845;DHT22;33605;48.822;8.796;2022-09-01T02:15:17;17.30;66.40
47845;DHT22;33605;48.822;8.796;2022-09-01T02:17:43;17.30;66.50
47845;DHT22;33605;48.822;8.796;2022-09-01T02:20:12;17.20;66.40
47845;DHT22;33605;48.822;8.796;2022-09-01T02:22:40;17.30;66.40
47845;DHT22;33605;48.822;8.796;2022-09-01T02:25:09;17.20;66.30
47845;DHT22;33605;48.822;8.796;2022-09-01T02:27:35;17.20;66.30
47845;DHT22;33605;48.822;8.796;2022-09-01T02:30:05;17.20;66.30
47845;DHT22;33605;48.822;8.796;2022-09-01T02:32:34;17.20;66.30
47845;DHT22;33605;48.822;8.796;2022-09-01T02:35:00;17.20;66.20
47845;DHT22;33605;48.822;8.796;2022-09-01T02:37:26;17.20;66.10
47845;DHT22;33605;48.822;8.796;2022-09-01T02:39:52;17.20;66.10
47845;DHT22;33605;48.822;8.796;2022-09-01T02:42:21;17.20;66.10
47845;DHT22;33605;48.822;8.796;2022-09-01T02:44:53;17.10;65.90
47845;DHT22;33605;48.822;8.796;2022-09-01T02:47:20;17.10;66.00
47845;DHT22;33605;48.822;8.796;2022-09-01T02:49:51;17.10;66.00
47845;DHT22;33605;48.822;8.796;2022-09-01T02:52:17;17.00;65.90
47845;DHT22;33605;48.822;8.796;2022-09-01T02:54:48;17.10;65.90
47845;DHT22;33605;48.822;8.796;2022-09-01T02:57:15;17.00;65.80
47845;DHT22;33605;48.822;8.796;2022-09-01T02:59:41;17.00;65.80
47845;DHT22;33605;48.822;8.796;2022-09-01T03:02:07;17.00;65.70
47845;DHT22;33605;48.822;8.796;2022-09-01T03:04:34;17.00;65.70
47845;DHT22;33605;48.822;8.796;2022-09-01T03:07:03;17.00;65.70
47845;DHT22;33605;48.822;8.796;2022-09-01T03:09:29;17.00;65.60
47845;DHT22;33605;48.822;8.796;2022-09-01T03:11:57;17.00;66.00
47845;DHT22;33605;48.822;8.796;2022-09-01T03:14:23;16.90;65.40
47845;DHT22;33605;48.822;8.796;2022-09-01T03:16:50;16.90;65.40
47845;DHT22;33605;48.822;8.796;2022-09-01T03:19:16;16.90;65.40
47845;DHT22;33605;48.822;8.796;2022-09-01T03:21:44;16.80;65.30
47845;DHT22;33605;48.822;8.796;2022-09-01T03:24:12;16.90;65.50
47845;DHT22;33605;48.822;8.796;2022-09-01T03:26:40;16.80;65.50
47845;DHT22;33605;48.822;8.796;2022-09-01T03:29:06;16.90;65.60
47845;DHT22;33605;48.822;8.796;2022-09-01T03:31:33;16.80;65.60
47845;DHT22;33605;48.822;8.796;2022-09-01T03:33:59;16.80;65.70
47845;DHT22;33605;48.822;8.796;2022-09-01T03:36:26;16.80;65.90
47845;DHT22;33605;48.822;8.796;2022-09-01T03:38:53;16.70;65.90
47845;DHT22;33605;48.822;8.796;2022-09-01T03:41:23;16.70;66.10
47845;DHT22;33605;48.822;8.796;2022-09-01T03:43:51;16.70;66.10
47845;DHT22;33605;48.822;8.796;2022-09-01T03:46:20;16.70;66.20
47845;DHT22;33605;48.822;8.796;2022-09-01T03:48:52;16.70;66.20
47845;DHT22;33605;48.822;8.796;2022-09-01T03:51:20;16.60;66.20
47845;DHT22;33605;48.822;8.796;2022-09-01T03:53:48;16.50;66.20
47845;DHT22;33605;48.822;8.796;2022-09-01T03:56:13;16.50;66.40
47845;DHT22;33605;48.822;8.796;2022-09-01T03:58:40;16.50;66.50
47845;DHT22;33605;48.822;8.796;2022-09-01T04:01:08;16.50;66.60
47845;DHT22;33605;48.822;8.796;2022-09-01T04:03:37;16.40;66.60
47845;DHT22;33605;48.822;8.796;2022-09-01T04:06:04;16.30;66.60
47845;DHT22;33605;48.822;8.796;2022-09-01T04:08:31;16.50;66.80
47845;DHT22;33605;48.822;8.796;2022-09-01T04:11:00;16.40;66.70
47845;DHT22;33605;48.822;8.796;2022-09-01T04:13:30;16.40;66.70
47845;DHT22;33605;48.822;8.796;2022-09-01T04:15:57;16.40;66.60
47845;DHT22;33605;48.822;8.796;2022-09-01T04:18:23;16.50;66.70
47845;DHT22;33605;48.822;8.796;2022-09-01T04:20:52;16.40;66.50
47845;DHT22;33605;48.822;8.796;2022-09-01T04:23:21;16.40;66.90
47845;DHT22;33605;48.822;8.796;2022-09-01T04:26:07;16.30;66.30
47845;DHT22;33605;48.822;8.796;2022-09-01T04:28:37;16.30;66.30
47845;DHT22;33605;48.822;8.796;2022-09-01T04:31:06;16.30;66.30
47845;DHT22;33605;48.822;8.796;2022-09-01T04:33:34;16.30;66.30
47845;DHT22;33605;48.822;8.796;2022-09-01T04:36:15;16.30;66.30
47845;DHT22;33605;48.822;8.796;2022-09-01T04:38:52;16.20;66.30
47845;DHT22;33605;48.822;8.796;2022-09-01T04:41:24;16.20;66.20
47845;DHT22;33605;48.822;8.796;2022-09-01T04:43:51;16.20;66.30
47845;DHT22;33605;48.822;8.796;2022-09-01T04:46:21;16.20;66.30
47845;DHT22;33605;48.822;8.796;2022-09-01T04:48:47;16.30;66.30
47845;DHT22;33605;48.822;8.796;2022-09-01T04:51:13;16.20;66.30
47845;DHT22;33605;48.822;8.796;2022-09-01T04:53:40;16.20;66.40
47845;DHT22;33605;48.822;8.796;2022-09-01T04:56:08;16.10;66.40
47845;DHT22;33605;48.822;8.796;2022-09-01T04:58:36;16.10;66.40
47845;DHT22;33605;48.822;8.796;2022-09-01T05:01:13;16.20;66.50
47845;DHT22;33605;48.822;8.796;2022-09-01T05:03:39;16.30;66.70
47845;DHT22;33605;48.822;8.796;2022-09-01T05:06:15;16.20;66.60
47845;DHT22;33605;48.822;8.796;2022-09-01T05:08:42;16.20;66.70
47845;DHT22;33605;48.822;8.796;2022-09-01T05:11:10;16.10;66.60
47845;DHT22;33605;48.822;8.796;2022-09-01T05:13:36;16.30;66.80
47845;DHT22;33605;48.822;8.796;2022-09-01T05:16:08;16.30;66.90
47845;DHT22;33605;48.822;8.796;2022-09-01T05:18:41;16.30;67.00
47845;DHT22;33605;48.822;8.796;2022-09-01T05:21:09;16.30;66.90
47845;DHT22;33605;48.822;8.796;2022-09-01T05:23:39;16.30;66.80
47845;DHT22;33605;48.822;8.796;2022-09-01T05:26:11;16.40;66.90
47845;DHT22;33605;48.822;8.796;2022-09-01T05:28:44;16.40;66.90
47845;DHT22;33605;48.822;8.796;2022-09-01T05:31:10;16.40;66.80
47845;DHT22;33605;48.822;8.796;2022-09-01T05:33:38;16.40;66.90
47845;DHT22;33605;48.822;8.796;2022-09-01T05:36:11;16.40;66.90
47845;DHT22;33605;48.822;8.796;2022-09-01T05:38:37;16.40;67.10
47845;DHT22;33605;48.822;8.796;2022-09-01T05:41:07;16.50;67.30
47845;DHT22;33605;48.822;8.796;2022-09-01T05:43:34;16.50;67.40
47845;DHT22;33605;48.822;8.796;2022-09-01T05:46:00;16.50;67.50
47845;DHT22;33605;48.822;8.796;2022-09-01T05:48:28;16.60;67.60
47845;DHT22;33605;48.822;8.796;2022-09-01T05:50:56;16.60;67.70
47845;DHT22;33605;48.822;8.796;2022-09-01T05:53:25;16.60;67.70
47845;DHT22;33605;48.822;8.796;2022-09-01T05:55:54;16.70;67.80
47845;DHT22;33605;48.822;8.796;2022-09-01T05:58:25;16.70;67.80
47845;DHT22;33605;48.822;8.796;2022-09-01T06:00:52;16.70;67.80
47845;DHT22;33605;48.822;8.796;2022-09-01T06:03:21;16.80;67.90
47845;DHT22;33605;48.822;8.796;2022-09-01T06:05:48;16.80;67.90
47845;DHT22;33605;48.822;8.796;2022-09-01T06:08:22;16.80;67.90
47845;DHT22;33605;48.822;8.796;2022-09-01T06:10:50;16.90;68.00
47845;DHT22;33605;48.822;8.796;2022-09-01T06:13:17;16.90;68.00
47845;DHT22;33605;48.822;8.796;2022-09-01T06:15:50;16.90;68.10
47845;DHT22;33605;48.822;8.796;2022-09-01T06:18:18;17.00;68.20
47845;DHT22;33605;48.822;8.796;2022-09-01T06:20:46;17.10;68.30
47845;DHT22;33605;48.822;8.796;2022-09-01T06:23:13;17.10;68.50
47845;DHT22;33605;48.822;8.796;2022-09-01T06:25:40;17.10;68.60
47845;DHT22;33605;48.822;8.796;2022-09-01T06:28:08;17.30;68.80
47845;DHT22;33605;48.822;8.796;2022-09-01T06:30:36;17.30;68.70
47845;DHT22;33605;48.822;8.796;2022-09-01T06:37:57;17.30;68.70
47845;DHT22;33605;48.822;8.796;2022-09-01T22:33:00;40.60;28.80
47845;DHT22;33605;48.822;8.796;2022-09-01T22:35:27;19.70;52.40
47845;DHT22;33605;48.822;8.796;2022-09-01T22:37:54;19.40;51.60
47845;DHT22;33605;48.822;8.796;2022-09-01T22:40:19;19.30;51.60
47845;DHT22;33605;48.822;8.796;2022-09-01T22:42:45;19.30;51.70
47845;DHT22;33605;48.822;8.796;2022-09-01T22:45:12;19.30;51.90
47845;DHT22;33605;48.822;8.796;2022-09-01T22:47:38;19.20;52.20
47845;DHT22;33605;48.822;8.796;2022-09-01T22:50:06;19.20;52.40
47845;DHT22;33605;48.822;8.796;2022-09-01T22:52:31;19.10;52.40
47845;DHT22;33605;48.822;8.796;2022-09-01T22:54:58;19.10;52.60
47845;DHT22;33605;48.822;8.796;2022-09-01T22:57:23;19.10;52.80
47845;DHT22;33605;48.822;8.796;2022-09-01T22:59:50;19.00;52.80
47845;DHT22;33605;48.822;8.796;2022-09-01T23:02:16;19.00;53.00
47845;DHT22;33605;48.822;8.796;2022-09-01T23:04:43;19.00;53.20
47845;DHT22;33605;48.822;8.796;2022-09-01T23:07:10;19.00;53.40
47845;DHT22;33605;48.822;8.796;2022-09-01T23:09:36;18.90;53.40
47845;DHT22;33605;48.822;8.796;2022-09-01T23:12:02;18.90;53.50
47845;DHT22;33605;48.822;8.796;2022-09-01T23:14:28;18.90;53.80
47845;DHT22;33605;48.822;8.796;2022-09-01T23:16:53;18.80;53.50
47845;DHT22;33605;48.822;8.796;2022-09-01T23:19:20;18.80;53.90
47845;DHT22;33605;48.822;8.796;2022-09-01T23:21:46;18.80;54.20
47845;DHT22;33605;48.822;8.796;2022-09-01T23:24:13;18.80;54.30
47845;DHT22;33605;48.822;8.796;2022-09-01T23:26:39;18.70;54.20
47845;DHT22;33605;48.822;8.796;2022-09-01T23:29:05;18.60;54.20
47845;DHT22;33605;48.822;8.796;2022-09-01T23:31:33;18.60;54.40
47845;DHT22;33605;48.822;8.796;2022-09-01T23:34:00;18.60;54.80
47845;DHT22;33605;48.822;8.796;2022-09-01T23:36:27;18.50;55.00
47845;DHT22;33605;48.822;8.796;2022-09-01T23:38:54;18.50;55.10
47845;DHT22;33605;48.822;8.796;2022-09-01T23:41:23;18.50;55.20
47845;DHT22;33605;48.822;8.796;2022-09-01T23:43:52;18.40;55.40
47845;DHT22;33605;48.822;8.796;2022-09-01T23:46:24;18.30;55.20
47845;DHT22;33605;48.822;8.796;2022-09-01T23:48:50;18.30;55.30
47845;DHT22;33605;48.822;8.796;2022-09-01T23:51:16;18.30;55.40
47845;DHT22;33605;48.822;8.796;2022-09-01T23:53:46;18.20;55.50
47845;DHT22;33605;48.822;8.796;2022-09-01T23:56:14;18.10;55.60
47845;DHT22;33605;48.822;8.796;2022-09-01T23:58:40;18.10;55.80
